Time;durP1;ratioP1;P1;durP2;ratioP2;P2;SDS_P1;SDS_P2;PMS_P1;PMS_P2;Temp;Humidity;BMP_temperature;BMP_pressure;BME280_temperature;BME280_humidity;BME280_pressure;Samples;Min_cycle;Max_cycle;Signal;HPM_P1;HPM_P2
2022/06/26 00:01:06;;;;;;;10.95;8.25;;;18.30;99.90;;;;;;5070616;28;20035;-67
2022/06/26 00:03:32;;;;;;;8.00;6.95;;;18.40;99.90;;;;;;5070684;28;20032;-66
2022/06/26 00:05:57;;;;;;;9.48;7.50;;;18.40;99.90;;;;;;5077172;28;20635;-65
2022/06/26 00:08:25;;;;;;;10.93;7.65;;;18.30;99.90;;;;;;5070677;28;20020;-65
2022/06/26 00:10:51;;;;;;;11.82;8.65;;;18.30;99.90;;;;;;5070541;28;20111;-65
2022/06/26 00:13:17;;;;;;;12.18;8.57;;;18.30;99.90;;;;;;5070792;28;20074;-65
2022/06/26 00:15:43;;;;;;;11.48;8.30;;;18.30;99.90;;;;;;5070160;28;20505;-66
2022/06/26 00:18:09;;;;;;;14.77;7.72;;;18.20;99.90;;;;;;5070788;28;20029;-66
2022/06/26 00:20:34;;;;;;;9.52;7.72;;;18.20;99.90;;;;;;5073305;28;20111;-65
2022/06/26 00:23:00;;;;;;;12.02;8.32;;;18.10;99.90;;;;;;5090314;28;20024;-66
2022/06/26 00:25:26;;;;;;;10.10;8.18;;;18.20;99.90;;;;;;5090433;28;20089;-65
2022/06/26 00:27:51;;;;;;;14.00;9.73;;;18.20;99.90;;;;;;5090530;28;20028;-66
2022/06/26 00:30:17;;;;;;;12.93;9.07;;;18.10;99.90;;;;;;5090142;28;20028;-65
2022/06/26 00:32:42;;;;;;;10.02;8.10;;;18.10;99.90;;;;;;5090516;28;20035;-65
2022/06/26 00:35:09;;;;;;;12.02;9.38;;;18.10;99.90;;;;;;5081458;28;20044;-65
2022/06/26 00:37:34;;;;;;;12.75;8.77;;;18.10;99.90;;;;;;5070335;28;20025;-65
2022/06/26 00:40:00;;;;;;;17.80;9.63;;;18.00;99.90;;;;;;5069702;28;20094;-65
2022/06/26 00:42:25;;;;;;;12.20;8.73;;;17.80;99.90;;;;;;5069948;28;20063;-65
2022/06/26 00:44:54;;;;;;;9.43;7.93;;;17.80;99.90;;;;;;5070089;28;20025;-65
2022/06/26 00:47:21;;;;;;;15.98;9.80;;;17.80;99.90;;;;;;5070102;28;20045;-65
2022/06/26 00:49:46;;;;;;;14.77;8.93;;;17.70;99.90;;;;;;5077780;28;20070;-65
2022/06/26 00:52:12;;;;;;;13.25;9.18;;;17.70;99.90;;;;;;5090094;28;20428;-65
2022/06/26 00:54:38;;;;;;;11.63;8.90;;;17.50;99.90;;;;;;5088103;28;20024;-64
2022/06/26 00:57:04;;;;;;;12.88;9.98;;;17.60;99.90;;;;;;5090291;28;20047;-65
2022/06/26 00:59:31;;;;;;;17.27;10.30;;;17.70;99.90;;;;;;5093535;28;20025;-66
2022/06/26 01:01:57;;;;;;;12.18;8.98;;;17.60;99.90;;;;;;5094241;28;20036;-65
2022/06/26 01:04:23;;;;;;;14.27;9.00;;;17.70;99.90;;;;;;5093716;28;20489;-65
2022/06/26 01:06:49;;;;;;;14.30;9.65;;;17.60;99.90;;;;;;5094440;28;20097;-65
2022/06/26 01:09:15;;;;;;;13.88;9.23;;;17.40;99.90;;;;;;5084921;28;20033;-64
2022/06/26 01:11:42;;;;;;;12.60;8.63;;;17.50;99.90;;;;;;5073679;28;20031;-64
2022/06/26 01:14:09;;;;;;;13.25;9.15;;;17.50;99.90;;;;;;5074339;28;20032;-64
2022/06/26 01:16:34;;;;;;;13.45;9.00;;;17.50;99.90;;;;;;5073791;28;20017;-65
2022/06/26 01:19:00;;;;;;;13.45;9.05;;;17.50;99.90;;;;;;5076460;28;20593;-65
2022/06/26 01:21:26;;;;;;;14.48;9.40;;;17.30;99.90;;;;;;5073406;28;20028;-64
2022/06/26 01:23:53;;;;;;;14.65;10.25;;;17.30;99.90;;;;;;5073333;28;20023;-64
2022/06/26 01:26:20;;;;;;;13.88;9.68;;;17.30;99.90;;;;;;5073800;28;20427;-64
2022/06/26 01:28:46;;;;;;;15.80;10.88;;;17.20;99.90;;;;;;5073537;28;20382;-65
2022/06/26 01:31:11;;;;;;;16.65;11.20;;;17.20;99.90;;;;;;5073525;28;20028;-65
2022/06/26 01:33:37;;;;;;;15.90;11.40;;;17.30;99.90;;;;;;5081002;28;20032;-64
2022/06/26 01:36:03;;;;;;;15.82;11.25;;;17.30;99.90;;;;;;5093760;28;20032;-65
2022/06/26 01:38:29;;;;;;;16.88;11.20;;;17.40;99.90;;;;;;5094107;28;20032;-67
2022/06/26 01:40:56;;;;;;;19.17;10.57;;;17.30;99.90;;;;;;5093170;28;20543;-65
2022/06/26 01:43:29;;;;;;;13.43;10.15;;;17.30;99.90;;;;;;5093240;28;20028;-64
2022/06/26 01:45:56;;;;;;;17.03;12.03;;;17.40;99.90;;;;;;5093164;28;20016;-66
2022/06/26 01:48:22;;;;;;;19.60;10.93;;;17.50;99.90;;;;;;5077702;28;20262;-68
2022/06/26 01:50:48;;;;;;;14.27;10.10;;;17.50;99.90;;;;;;5073711;28;20048;-65
2022/06/26 01:53:15;;;;;;;17.85;12.02;;;17.60;99.90;;;;;;5072969;28;20494;-65
2022/06/26 01:55:41;;;;;;;25.65;13.95;;;17.70;99.90;;;;;;5073144;28;20398;-64
2022/06/26 01:58:08;;;;;;;18.42;11.25;;;17.70;99.90;;;;;;5073551;28;20021;-66
2022/06/26 02:00:39;;;;;;;19.85;12.80;;;17.70;99.90;;;;;;5073091;28;20028;-65
2022/06/26 02:03:05;;;;;;;20.67;12.20;;;17.70;99.90;;;;;;5075543;28;20028;-65
2022/06/26 02:05:32;;;;;;;21.05;13.15;;;17.70;99.90;;;;;;5091674;28;20035;-64
2022/06/26 02:07:58;;;;;;;20.90;13.60;;;17.70;99.90;;;;;;5092571;28;20020;-64
2022/06/26 02:15:54;;;;;;;21.92;14.38;;;17.70;99.90;;;;;;5073712;28;20086;-64
2022/06/26 02:18:20;;;;;;;22.80;14.90;;;17.60;99.90;;;;;;5073165;28;20028;-65
2022/06/26 02:20:46;;;;;;;24.80;14.30;;;17.50;99.90;;;;;;5072531;28;20398;-64
2022/06/26 02:23:13;;;;;;;19.90;13.35;;;17.50;99.90;;;;;;5072379;28;20021;-65
2022/06/26 02:25:38;;;;;;;18.48;12.27;;;17.50;99.90;;;;;;5072533;28;20024;-65
2022/06/26 02:28:05;;;;;;;17.60;11.05;;;17.50;99.90;;;;;;5076849;28;20386;-66
2022/06/26 02:30:30;;;;;;;24.08;13.55;;;17.50;99.90;;;;;;5092377;28;20024;-65
2022/06/26 02:32:56;;;;;;;19.88;13.02;;;17.50;99.90;;;;;;5092350;28;20428;-66
2022/06/26 02:35:27;;;;;;;25.77;14.43;;;17.50;99.90;;;;;;5092109;28;20027;-65
2022/06/26 02:37:57;;;;;;;21.98;14.68;;;17.40;99.90;;;;;;5092556;28;20491;-66
2022/06/26 02:40:24;;;;;;;19.75;11.70;;;17.40;99.90;;;;;;5092284;28;20641;-64
2022/06/26 02:42:50;;;;;;;22.13;13.82;;;17.40;99.90;;;;;;5088221;28;20028;-64
2022/06/26 02:45:16;;;;;;;25.33;14.50;;;17.40;99.90;;;;;;5080206;28;20039;-64
2022/06/26 02:47:41;;;;;;;21.15;13.63;;;17.30;99.90;;;;;;5092618;28;20382;-66
2022/06/26 02:50:08;;;;;;;23.92;13.73;;;17.20;99.90;;;;;;5092316;28;20034;-64
2022/06/26 02:52:34;;;;;;;26.08;14.40;;;17.10;99.90;;;;;;5091936;28;20023;-67
2022/06/26 02:55:03;;;;;;;30.33;15.57;;;17.10;99.90;;;;;;5090477;28;20107;-67
2022/06/26 02:57:29;;;;;;;26.58;15.73;;;17.00;99.90;;;;;;5081061;28;20031;-67
2022/06/26 02:59:54;;;;;;;28.25;17.20;;;16.90;99.90;;;;;;5071846;28;20024;-66
2022/06/26 03:02:20;;;;;;;25.40;16.38;;;16.90;99.90;;;;;;5071143;28;20016;-65
2022/06/26 03:04:46;;;;;;;22.38;14.77;;;17.00;99.90;;;;;;5072042;28;20134;-65
2022/06/26 03:07:12;;;;;;;23.85;14.88;;;17.00;99.90;;;;;;5071425;28;20024;-66
2022/06/26 03:09:37;;;;;;;26.42;15.60;;;17.00;99.90;;;;;;5083800;28;20107;-66
2022/06/26 03:12:04;;;;;;;29.55;15.70;;;17.10;99.90;;;;;;5091574;28;20034;-66
2022/06/26 03:14:30;;;;;;;26.55;15.13;;;17.10;99.90;;;;;;5091802;28;20121;-66
2022/06/26 03:16:55;;;;;;;26.70;16.95;;;17.00;99.90;;;;;;5092303;28;20028;-66
2022/06/26 03:19:21;;;;;;;31.27;18.83;;;17.10;99.90;;;;;;5091240;28;20024;-64
2022/06/26 03:21:46;;;;;;;31.15;18.45;;;17.10;99.90;;;;;;5091107;28;20016;-65
2022/06/26 03:24:12;;;;;;;22.08;14.50;;;17.10;99.90;;;;;;5080231;28;20028;-64
2022/06/26 03:26:38;;;;;;;24.15;15.10;;;17.20;99.90;;;;;;5114550;22;20044;-65
2022/06/26 03:29:07;;;;;;;20.40;13.07;;;17.20;99.90;;;;;;5112063;28;20020;-64
2022/06/26 03:31:33;;;;;;;17.88;12.48;;;17.20;99.90;;;;;;5093134;28;20030;-65
2022/06/26 03:33:58;;;;;;;23.50;12.18;;;17.20;99.90;;;;;;5110895;28;20028;-66
2022/06/26 03:36:25;;;;;;;17.02;11.65;;;17.20;99.90;;;;;;5111285;28;20040;-65
2022/06/26 03:38:51;;;;;;;26.05;14.05;;;17.20;99.90;;;;;;5111468;28;20203;-66
2022/06/26 03:41:18;;;;;;;20.05;12.18;;;17.10;99.90;;;;;;5111013;28;20035;-65
2022/06/26 03:43:43;;;;;;;16.27;11.13;;;17.10;99.90;;;;;;5111175;28;20024;-65
2022/06/26 03:46:09;;;;;;;16.00;9.30;;;17.10;99.90;;;;;;5110824;28;20397;-65
2022/06/26 03:48:34;;;;;;;14.18;8.18;;;17.10;99.90;;;;;;5111334;28;20031;-65
2022/06/26 03:51:01;;;;;;;12.43;7.72;;;17.10;99.90;;;;;;5111090;28;20030;-66
2022/06/26 03:53:27;;;;;;;10.68;6.28;;;17.00;99.90;;;;;;5094693;28;20572;-65
2022/06/26 03:55:53;;;;;;;8.10;5.63;;;17.10;99.90;;;;;;5090228;28;20089;-63
2022/06/26 03:58:18;;;;;;;12.43;5.20;;;17.10;99.90;;;;;;5090135;28;20024;-64
2022/06/26 04:00:44;;;;;;;11.35;5.97;;;17.10;99.90;;;;;;5090531;28;20335;-64
2022/06/26 04:03:09;;;;;;;7.00;3.58;;;17.10;99.90;;;;;;5096663;28;20395;-65
2022/06/26 04:05:39;;;;;;;4.93;3.65;;;17.00;99.90;;;;;;5109374;28;20027;-65
2022/06/26 04:08:06;;;;;;;5.93;3.05;;;17.10;99.90;;;;;;5090673;28;20034;-65
2022/06/26 04:10:32;;;;;;;3.90;3.00;;;17.10;99.90;;;;;;5090407;28;20024;-65
2022/06/26 04:13:00;;;;;;;2.88;2.65;;;17.10;99.90;;;;;;5103413;28;20397;-64
2022/06/26 04:15:30;;;;;;;11.10;2.92;;;17.00;99.90;;;;;;5109493;28;20020;-65
2022/06/26 04:17:56;;;;;;;13.88;2.60;;;17.00;99.90;;;;;;5090024;28;20179;-64
2022/06/26 04:20:21;;;;;;;3.78;3.05;;;17.00;99.90;;;;;;5090251;28;20084;-65
2022/06/26 04:23:02;;;;;;;3.25;2.53;;;17.00;99.90;;;;;;5091153;28;20035;-65
2022/06/26 04:25:29;;;;;;;4.75;2.60;;;17.00;99.90;;;;;;5090264;28;20024;-66
2022/06/26 04:27:55;;;;;;;2.95;2.42;;;17.00;99.90;;;;;;5090549;28;20020;-63
2022/06/26 04:30:22;;;;;;;2.38;2.15;;;17.00;99.90;;;;;;5090159;28;20024;-64
2022/06/26 04:32:47;;;;;;;6.70;2.60;;;17.00;99.90;;;;;;5103710;28;20498;-63
2022/06/26 04:35:14;;;;;;;7.03;2.55;;;17.00;99.90;;;;;;5110655;28;20038;-64
2022/06/26 04:37:40;;;;;;;5.75;2.58;;;17.00;99.90;;;;;;5110050;28;20028;-65
2022/06/26 04:40:08;;;;;;;4.35;2.88;;;17.10;99.90;;;;;;5110742;28;20540;-65
2022/06/26 04:42:33;;;;;;;3.20;2.90;;;17.10;99.90;;;;;;5109980;28;20022;-65
2022/06/26 04:44:59;;;;;;;5.47;2.75;;;17.10;99.90;;;;;;5109465;28;20028;-65
2022/06/26 04:47:24;;;;;;;5.18;2.50;;;17.20;99.90;;;;;;5090182;28;20024;-66
2022/06/26 04:49:50;;;;;;;7.28;2.90;;;17.30;99.90;;;;;;5089652;28;20386;-64
2022/06/26 04:52:16;;;;;;;3.45;2.17;;;17.30;99.90;;;;;;5089849;28;20020;-63
2022/06/26 04:54:42;;;;;;;6.78;2.95;;;17.40;99.90;;;;;;5092891;28;20031;-64
2022/06/26 04:57:08;;;;;;;3.45;2.53;;;17.40;99.90;;;;;;5110452;28;20096;-65
2022/06/26 04:59:34;;;;;;;3.72;2.67;;;17.40;99.90;;;;;;5110375;28;20638;-63
2022/06/26 05:02:00;;;;;;;10.75;3.55;;;17.50;99.90;;;;;;5109854;28;20028;-62
2022/06/26 05:04:25;;;;;;;6.72;2.38;;;17.50;99.90;;;;;;5110483;28;20059;-63
2022/06/26 05:06:51;;;;;;;3.92;2.70;;;17.50;99.90;;;;;;5110077;28;20076;-65
2022/06/26 05:09:17;;;;;;;5.00;2.75;;;17.50;99.90;;;;;;5100202;28;20031;-63
2022/06/26 05:11:43;;;;;;;5.38;3.03;;;17.60;99.90;;;;;;5090174;28;20028;-64
2022/06/26 05:14:09;;;;;;;5.85;2.88;;;17.60;99.90;;;;;;5089291;28;20692;-65
2022/06/26 05:16:35;;;;;;;7.97;3.25;;;17.70;99.90;;;;;;5089513;28;20402;-65
2022/06/26 05:19:01;;;;;;;9.95;2.80;;;17.70;99.90;;;;;;5092169;28;20039;-64
2022/06/26 05:21:27;;;;;;;4.32;2.85;;;17.80;99.90;;;;;;5089077;28;20393;-65
2022/06/26 05:23:53;;;;;;;3.00;2.47;;;17.90;99.90;;;;;;5089678;28;20020;-64
2022/06/26 05:26:18;;;;;;;11.65;3.20;;;17.90;99.90;;;;;;5089137;28;20036;-65
2022/06/26 05:28:44;;;;;;;6.30;2.67;;;17.90;99.90;;;;;;5089718;28;20153;-64
2022/06/26 05:31:09;;;;;;;8.23;2.33;;;17.90;99.90;;;;;;5090269;28;20024;-64
2022/06/26 05:33:35;;;;;;;4.93;2.25;;;18.00;99.90;;;;;;5089197;28;20032;-65
2022/06/26 05:36:00;;;;;;;8.50;2.45;;;18.00;99.90;;;;;;5089377;28;20036;-64
2022/06/26 05:38:26;;;;;;;4.78;2.55;;;17.90;99.90;;;;;;5102948;28;20036;-65
2022/06/26 05:40:51;;;;;;;3.22;1.85;;;17.90;99.90;;;;;;5109663;28;20431;-65
2022/06/26 05:43:17;;;;;;;3.65;1.98;;;17.80;99.90;;;;;;5109751;28;20102;-64
2022/06/26 05:45:43;;;;;;;4.18;2.08;;;17.80;99.90;;;;;;5113305;28;20028;-65
2022/06/26 05:48:08;;;;;;;5.43;2.20;;;17.80;99.90;;;;;;5113078;28;20019;-65
2022/06/26 05:50:34;;;;;;;3.65;2.28;;;17.80;99.90;;;;;;5113579;28;20030;-64
2022/06/26 05:52:59;;;;;;;3.92;2.47;;;17.80;99.90;;;;;;5100882;28;20036;-66
2022/06/26 05:55:25;;;;;;;4.15;2.33;;;17.80;99.90;;;;;;5093191;28;20034;-65
2022/06/26 05:57:50;;;;;;;7.70;2.40;;;17.80;99.90;;;;;;5092930;28;20506;-65
2022/06/26 06:00:16;;;;;;;4.47;2.40;;;17.80;99.90;;;;;;5093009;28;20427;-65
2022/06/26 06:02:41;;;;;;;2.92;1.92;;;17.80;99.90;;;;;;5093041;28;20028;-64
2022/06/26 06:05:08;;;;;;;4.50;1.67;;;17.70;99.90;;;;;;5092808;28;20032;-65
2022/06/26 06:07:36;;;;;;;3.22;1.80;;;17.70;99.90;;;;;;5110225;28;20107;-64
2022/06/26 06:10:03;;;;;;;4.00;1.80;;;17.60;99.90;;;;;;5112526;28;20026;-66
2022/06/26 06:12:28;;;;;;;3.35;1.63;;;17.60;99.90;;;;;;5113022;28;20330;-66
2022/06/26 06:14:54;;;;;;;3.35;1.88;;;17.60;99.90;;;;;;5113110;28;20028;-65
2022/06/26 06:17:38;;;;;;;3.90;1.90;;;17.50;99.90;;;;;;5113095;28;20020;-64
2022/06/26 06:20:15;;;;;;;4.40;1.70;;;17.50;99.90;;;;;;5112842;28;20107;-66
2022/06/26 06:22:53;;;;;;;4.65;2.03;;;17.60;99.90;;;;;;5092239;28;20024;-64
2022/06/26 06:25:20;;;;;;;3.65;2.08;;;17.50;99.90;;;;;;5092276;28;20051;-66
2022/06/26 06:27:46;;;;;;;5.68;1.42;;;17.50;99.90;;;;;;5092473;28;20024;-65
2022/06/26 06:30:12;;;;;;;2.83;1.50;;;17.60;99.90;;;;;;5092356;28;20085;-66
2022/06/26 06:32:40;;;;;;;2.20;1.40;;;17.60;99.90;;;;;;5091864;28;20038;-65
2022/06/26 06:35:06;;;;;;;3.10;1.55;;;17.70;99.90;;;;;;5100008;28;20477;-65
2022/06/26 06:37:32;;;;;;;4.60;1.45;;;17.70;99.90;;;;;;5111743;28;20435;-65
2022/06/26 06:39:58;;;;;;;7.15;1.75;;;17.80;99.90;;;;;;5112931;28;20023;-65
2022/06/26 06:42:23;;;;;;;1.40;1.13;;;17.80;99.90;;;;;;5112628;28;20034;-65
2022/06/26 06:44:49;;;;;;;2.00;1.45;;;17.90;99.90;;;;;;5113622;28;20027;-64
2022/06/26 06:47:14;;;;;;;5.50;1.60;;;18.00;99.90;;;;;;5113646;28;20502;-64
2022/06/26 06:49:40;;;;;;;2.55;1.60;;;18.00;99.90;;;;;;5106896;28;20028;-65
2022/06/26 06:52:06;;;;;;;3.72;1.80;;;18.10;99.90;;;;;;5102079;28;20020;-64
2022/06/26 06:54:32;;;;;;;6.63;1.45;;;18.10;99.90;;;;;;5111912;28;20648;-65
2022/06/26 06:56:58;;;;;;;2.20;1.60;;;18.10;99.90;;;;;;5112933;28;20031;-65
2022/06/26 06:59:23;;;;;;;8.40;2.13;;;18.20;99.90;;;;;;5113614;28;20024;-65
2022/06/26 07:01:49;;;;;;;4.35;1.60;;;18.10;99.90;;;;;;5113384;28;20031;-65
2022/06/26 07:04:15;;;;;;;3.15;1.58;;;18.20;99.90;;;;;;5114252;28;20024;-65
2022/06/26 07:06:41;;;;;;;5.78;1.50;;;18.20;99.90;;;;;;5113926;28;20097;-65
2022/06/26 07:09:06;;;;;;;3.13;1.83;;;18.20;99.90;;;;;;5105591;28;20028;-64
2022/06/26 07:11:32;;;;;;;3.28;1.83;;;18.20;99.90;;;;;;5093043;28;20077;-64
2022/06/26 07:13:58;;;;;;;3.03;1.50;;;18.30;99.90;;;;;;5093298;28;20021;-66
2022/06/26 07:16:24;;;;;;;4.28;1.90;;;18.30;99.90;;;;;;5093112;28;20486;-66
2022/06/26 07:18:50;;;;;;;2.30;1.52;;;18.50;99.90;;;;;;5093952;28;20024;-64
2022/06/26 07:21:15;;;;;;;4.72;1.90;;;18.70;99.90;;;;;;5095172;28;20031;-65
2022/06/26 07:23:41;;;;;;;3.03;1.58;;;18.70;99.90;;;;;;5096665;28;20069;-66
2022/06/26 07:26:06;;;;;;;1.85;1.60;;;18.70;99.90;;;;;;5102552;28;20494;-65
2022/06/26 07:28:32;;;;;;;6.13;1.50;;;18.70;99.90;;;;;;5093105;28;20020;-65
2022/06/26 07:30:58;;;;;;;8.25;2.30;;;18.70;99.90;;;;;;5092906;28;20128;-66
2022/06/26 07:36:07;;;;;;;1.90;1.45;;;18.70;99.90;;;;;;5093451;28;20047;-66
2022/06/26 07:38:33;;;;;;;3.15;1.60;;;18.70;99.90;;;;;;5107620;28;20042;-64
2022/06/26 07:40:58;;;;;;;2.47;1.63;;;18.80;99.90;;;;;;5112934;28;20039;-65
2022/06/26 07:43:24;;;;;;;4.15;1.58;;;18.80;99.90;;;;;;5113001;28;20032;-65
2022/06/26 07:45:50;;;;;;;4.70;2.63;;;18.80;99.90;;;;;;5113144;28;20020;-65
2022/06/26 07:48:16;;;;;;;3.60;1.67;;;19.00;99.90;;;;;;5113197;28;20669;-65
2022/06/26 07:50:41;;;;;;;3.05;1.75;;;19.00;99.90;;;;;;5111643;28;20019;-65
2022/06/26 07:53:07;;;;;;;6.85;1.90;;;19.10;99.90;;;;;;5099103;28;20043;-64
2022/06/26 07:55:33;;;;;;;3.63;1.38;;;19.20;99.90;;;;;;5092456;28;20028;-65
2022/06/26 07:57:59;;;;;;;4.25;1.35;;;19.20;99.90;;;;;;5092416;28;20024;-65
2022/06/26 08:00:24;;;;;;;5.05;1.65;;;19.20;99.90;;;;;;5092438;28;20482;-64
2022/06/26 08:02:50;;;;;;;1.40;1.20;;;19.20;99.90;;;;;;5092170;28;20052;-65
2022/06/26 08:05:16;;;;;;;5.75;1.67;;;19.30;99.90;;;;;;5092363;28;20098;-64
2022/06/26 08:07:42;;;;;;;3.97;1.52;;;19.30;99.90;;;;;;5110379;28;20028;-64
2022/06/26 08:10:08;;;;;;;3.97;1.23;;;19.20;99.90;;;;;;5112514;28;20131;-65
2022/06/26 08:12:33;;;;;;;1.98;1.35;;;19.20;99.90;;;;;;5101234;28;20032;-65
2022/06/26 08:14:59;;;;;;;2.38;1.08;;;19.20;99.90;;;;;;5092257;28;20031;-65
2022/06/26 08:17:25;;;;;;;2.95;1.48;;;19.20;99.90;;;;;;5092093;28;20028;-64
2022/06/26 08:19:50;;;;;;;3.72;1.33;;;19.20;99.90;;;;;;5105783;28;20019;-66
2022/06/26 08:22:16;;;;;;;3.95;1.20;;;19.30;99.90;;;;;;5110321;28;20482;-65
2022/06/26 08:24:42;;;;;;;3.20;1.00;;;19.50;99.90;;;;;;5112343;28;20046;-65
2022/06/26 08:27:08;;;;;;;1.35;0.95;;;19.80;99.90;;;;;;5112200;28;20397;-64
2022/06/26 08:29:34;;;;;;;1.50;0.90;;;20.10;99.90;;;;;;5112515;28;20099;-64
2022/06/26 08:32:00;;;;;;;1.52;1.05;;;20.30;99.90;;;;;;5103877;28;20036;-64
2022/06/26 08:34:26;;;;;;;3.63;0.95;;;20.30;99.90;;;;;;5091980;28;20024;-65
2022/06/26 08:36:52;;;;;;;2.05;0.70;;;20.30;99.90;;;;;;5091976;28;20028;-64
2022/06/26 08:39:18;;;;;;;2.08;1.00;;;20.20;99.90;;;;;;5102658;28;20031;-64
2022/06/26 08:41:45;;;;;;;1.00;0.80;;;20.20;99.90;;;;;;5111660;28;20166;-64
2022/06/26 08:44:11;;;;;;;1.70;1.10;;;20.10;99.90;;;;;;5112113;28;20506;-64
2022/06/26 08:46:40;;;;;;;3.00;0.90;;;20.10;99.90;;;;;;5111670;28;20061;-65
2022/06/26 08:49:19;;;;;;;1.60;0.95;;;20.10;99.90;;;;;;5111026;28;20016;-65
2022/06/26 08:51:46;;;;;;;2.05;0.95;;;20.20;99.90;;;;;;5111840;28;20393;-66
2022/06/26 08:54:13;;;;;;;0.88;0.82;;;20.40;99.90;;;;;;5099305;28;20028;-64
2022/06/26 08:56:44;;;;;;;0.93;0.85;;;20.40;99.90;;;;;;5110720;28;20028;-65
2022/06/26 08:59:11;;;;;;;3.58;1.00;;;20.30;99.90;;;;;;5111976;28;20035;-66
2022/06/26 09:01:38;;;;;;;2.33;1.13;;;20.30;99.90;;;;;;5111550;28;20508;-65
2022/06/26 09:04:05;;;;;;;1.75;0.98;;;20.30;99.90;;;;;;5111954;28;20035;-65
2022/06/26 09:06:39;;;;;;;0.80;0.80;;;20.30;99.90;;;;;;5111798;28;20031;-64
2022/06/26 09:09:16;;;;;;;2.10;1.20;;;20.20;99.90;;;;;;5103913;28;20074;-66
2022/06/26 09:11:43;;;;;;;1.30;0.70;;;20.30;99.90;;;;;;5091141;28;20036;-66
2022/06/26 09:14:10;;;;;;;0.70;0.70;;;20.50;99.90;;;;;;5091413;28;20028;-65
2022/06/26 09:16:38;;;;;;;1.23;0.98;;;20.60;99.90;;;;;;5091384;28;20032;-65
2022/06/26 09:19:16;;;;;;;1.77;0.90;;;20.70;99.90;;;;;;5092065;28;20020;-66
2022/06/26 09:21:42;;;;;;;2.05;1.10;;;20.80;99.90;;;;;;5095382;28;20036;-65
2022/06/26 09:24:10;;;;;;;1.35;1.17;;;20.80;99.90;;;;;;5103847;28;20012;-65
2022/06/26 09:26:36;;;;;;;2.83;1.30;;;20.60;99.90;;;;;;5110749;22;20190;-60
2022/06/26 09:29:12;;;;;;;2.03;1.15;;;20.70;99.90;;;;;;5093502;28;20035;-58
2022/06/26 09:31:39;;;;;;;1.60;1.50;;;20.70;99.90;;;;;;5093211;28;20123;-59
2022/06/26 09:34:18;;;;;;;1.13;0.93;;;20.60;99.90;;;;;;5093527;28;20438;-59
2022/06/26 09:36:58;;;;;;;4.75;1.10;;;20.60;99.90;;;;;;5093139;28;20032;-59
2022/06/26 09:39:24;;;;;;;1.75;1.63;;;20.60;99.90;;;;;;5075637;28;20055;-59
2022/06/26 09:41:49;;;;;;;4.80;1.27;;;20.40;99.90;;;;;;5072722;28;20048;-59
2022/06/26 09:44:19;;;;;;;1.35;1.10;;;20.60;99.90;;;;;;5072972;28;20791;-60
2022/06/26 09:46:45;;;;;;;2.35;1.20;;;20.50;99.90;;;;;;5072468;28;20118;-60
2022/06/26 09:49:11;;;;;;;2.90;1.42;;;20.50;99.90;;;;;;5072853;28;20125;-60
2022/06/26 09:51:38;;;;;;;1.20;1.10;;;20.60;99.90;;;;;;5072537;28;20090;-59
2022/06/26 09:54:05;;;;;;;6.25;1.20;;;20.40;99.90;;;;;;5086210;28;20443;-60
2022/06/26 09:56:32;;;;;;;1.05;0.95;;;20.70;99.90;;;;;;5092876;28;20043;-58
2022/06/26 09:58:59;;;;;;;3.70;1.25;;;20.90;99.90;;;;;;5092873;28;20494;-60
2022/06/26 10:06:58;;;;;;;3.08;1.10;;;21.30;99.90;;;;;;5087043;28;20032;-59
2022/06/26 10:09:27;;;;;;;1.45;1.17;;;21.70;99.90;;;;;;5072043;28;20500;-59
2022/06/26 10:11:55;;;;;;;1.10;1.00;;;22.20;99.90;;;;;;5071870;28;20151;-59
2022/06/26 10:14:29;;;;;;;2.65;1.20;;;22.30;99.90;;;;;;5071903;28;20058;-59
2022/06/26 10:17:41;;;;;;;2.00;1.02;;;22.00;99.90;;;;;;5072530;28;20028;-59
2022/06/26 10:20:09;;;;;;;1.35;1.00;;;22.00;99.90;;;;;;5029941;28;20151;-59
2022/06/26 10:22:43;;;;;;;1.85;1.52;;;22.10;99.90;;;;;;5041240;28;20092;-60
2022/06/26 10:25:23;;;;;;;4.57;1.73;;;22.10;99.90;;;;;;5075260;28;20115;-60
2022/06/26 10:27:48;;;;;;;1.20;1.10;;;22.00;99.90;;;;;;5092113;28;20024;-59
2022/06/26 10:30:16;;;;;;;1.23;0.93;;;22.00;99.90;;;;;;5091281;28;20496;-59
2022/06/26 10:32:45;;;;;;;1.63;1.00;;;22.00;99.90;;;;;;5090939;28;20509;-60
2022/06/26 10:35:12;;;;;;;2.08;1.10;;;22.10;99.90;;;;;;5089694;28;20042;-60
2022/06/26 10:37:43;;;;;;;5.75;1.10;;;22.20;99.90;;;;;;5071547;28;20439;-59
2022/06/26 10:43:05;;;;;;;1.63;1.10;;;22.30;99.90;;;;;;5071638;28;20031;-58
2022/06/26 10:45:38;;;;;;;1.40;1.20;;;22.10;99.90;;;;;;5071045;28;20107;-60
2022/06/26 10:48:07;;;;;;;1.25;0.98;;;21.80;99.90;;;;;;5071854;28;20112;-60
2022/06/26 10:50:39;;;;;;;4.88;1.20;;;21.50;99.90;;;;;;5078252;28;20027;-60
2022/06/26 10:53:11;;;;;;;1.95;1.27;;;21.70;99.90;;;;;;5091088;28;20829;-60
2022/06/26 10:55:37;;;;;;;1.63;1.20;;;21.40;99.90;;;;;;5089608;28;20028;-59
2022/06/26 10:58:03;;;;;;;6.20;1.10;;;21.30;99.90;;;;;;5078634;28;20039;-59
2022/06/26 11:00:28;;;;;;;2.17;1.08;;;21.40;99.90;;;;;;5071353;28;20024;-59
2022/06/26 11:02:54;;;;;;;1.38;1.27;;;21.60;99.90;;;;;;5071319;28;20448;-59
2022/06/26 11:05:20;;;;;;;3.35;1.10;;;21.70;99.90;;;;;;5070705;28;20407;-59
2022/06/26 11:07:53;;;;;;;1.55;1.20;;;21.70;99.90;;;;;;5070939;28;20092;-60
2022/06/26 11:10:20;;;;;;;2.63;1.05;;;21.60;99.90;;;;;;5088306;28;20020;-60
2022/06/26 11:12:48;;;;;;;1.38;1.27;;;21.80;99.90;;;;;;5091242;28;20020;-60
2022/06/26 11:15:24;;;;;;;3.80;1.33;;;21.90;99.90;;;;;;5089371;28;20024;-59
2022/06/26 11:17:55;;;;;;;3.03;1.05;;;21.70;99.90;;;;;;5076216;28;20024;-60
2022/06/26 11:23:16;;;;;;;1.10;1.00;;;21.70;99.90;;;;;;5070014;28;20036;-60
2022/06/26 11:25:41;;;;;;;3.40;1.35;;;21.90;99.90;;;;;;5081313;28;20024;-58
2022/06/26 11:28:11;;;;;;;2.38;1.40;;;21.70;99.90;;;;;;5090740;28;20400;-60
2022/06/26 11:30:41;;;;;;;2.53;1.58;;;21.80;99.90;;;;;;5090798;28;20028;-60
2022/06/26 11:33:08;;;;;;;1.27;1.17;;;21.80;99.90;;;;;;5089115;28;20043;-59
2022/06/26 11:35:35;;;;;;;4.78;1.10;;;21.80;99.90;;;;;;5088267;28;20058;-60
2022/06/26 11:38:15;;;;;;;2.72;1.08;;;21.70;99.90;;;;;;5090665;28;20438;-59
2022/06/26 11:40:44;;;;;;;6.20;1.48;;;21.60;99.90;;;;;;5090127;28;20035;-59
2022/06/26 11:43:11;;;;;;;1.88;1.52;;;21.50;99.90;;;;;;5088338;28;20032;-59
2022/06/26 11:45:39;;;;;;;3.50;1.48;;;21.60;99.90;;;;;;5089206;28;20422;-59
2022/06/26 11:48:08;;;;;;;6.38;1.35;;;21.50;99.90;;;;;;5090379;28;20405;-59
2022/06/26 11:50:36;;;;;;;2.35;1.33;;;21.40;99.90;;;;;;5089984;28;20024;-59
2022/06/26 11:53:04;;;;;;;2.30;1.13;;;21.40;99.90;;;;;;5090534;28;20104;-60
2022/06/26 11:55:31;;;;;;;4.55;1.42;;;21.30;99.90;;;;;;5089860;28;20027;-59
2022/06/26 11:57:56;;;;;;;3.72;1.25;;;21.20;99.90;;;;;;5070289;28;20121;-60
2022/06/26 12:00:23;;;;;;;2.80;1.50;;;21.10;99.90;;;;;;5069965;28;20048;-59
2022/06/26 12:02:50;;;;;;;6.60;1.90;;;21.00;99.90;;;;;;5069597;28;20131;-60
2022/06/26 12:05:21;;;;;;;1.60;1.38;;;21.00;99.90;;;;;;5069989;28;20031;-60
2022/06/26 12:07:48;;;;;;;4.57;1.40;;;20.80;99.90;;;;;;5069414;28;20025;-60
2022/06/26 12:10:27;;;;;;;3.65;1.30;;;20.80;99.90;;;;;;5075701;28;20099;-60
2022/06/26 12:12:52;;;;;;;2.90;1.10;;;20.80;99.90;;;;;;5089659;28;20016;-60
2022/06/26 12:15:18;;;;;;;4.90;1.35;;;20.60;99.90;;;;;;5089945;28;20085;-59
2022/06/26 12:18:01;;;;;;;5.30;1.55;;;20.70;99.90;;;;;;5089685;28;20371;-60
2022/06/26 12:20:34;;;;;;;2.33;1.48;;;20.70;99.90;;;;;;5089683;28;20028;-60
2022/06/26 12:22:59;;;;;;;2.88;1.17;;;20.50;99.90;;;;;;5089525;28;20016;-59
2022/06/26 12:25:29;;;;;;;3.50;1.73;;;20.50;99.90;;;;;;5079676;28;20351;-59
2022/06/26 12:27:55;;;;;;;2.78;1.63;;;20.40;99.90;;;;;;5084602;28;20040;-60
2022/06/26 12:30:24;;;;;;;6.95;1.40;;;20.30;99.90;;;;;;5089676;28;20428;-60
2022/06/26 12:32:50;;;;;;;3.70;1.67;;;20.40;99.90;;;;;;5089251;28;20028;-59
2022/06/26 12:35:16;;;;;;;2.75;1.30;;;20.40;99.90;;;;;;5089592;28;20031;-59
2022/06/26 12:37:41;;;;;;;3.50;1.65;;;20.50;99.90;;;;;;5089542;28;20024;-59
2022/06/26 12:40:08;;;;;;;3.15;1.63;;;20.50;99.90;;;;;;5072530;28;20032;-57
2022/06/26 12:42:34;;;;;;;4.70;1.58;;;20.40;99.90;;;;;;5068593;28;20171;-59
2022/06/26 12:44:59;;;;;;;4.97;1.55;;;20.30;99.90;;;;;;5069376;28;20170;-60
2022/06/26 12:47:25;;;;;;;4.20;1.70;;;20.30;99.90;;;;;;5069068;28;20021;-60
2022/06/26 12:49:51;;;;;;;5.68;1.77;;;20.30;99.90;;;;;;5068817;28;20021;-59
2022/06/26 12:52:16;;;;;;;3.53;1.52;;;20.30;99.90;;;;;;5069454;28;20029;-60
2022/06/26 12:54:42;;;;;;;4.75;1.50;;;20.30;99.90;;;;;;5082184;28;20044;-60
2022/06/26 12:57:07;;;;;;;3.55;1.38;;;20.30;99.90;;;;;;5088925;28;20486;-58
2022/06/26 12:59:33;;;;;;;2.83;2.00;;;20.30;99.90;;;;;;5089557;28;20124;-59
2022/06/26 13:01:59;;;;;;;4.30;1.60;;;20.20;99.90;;;;;;5088678;28;20534;-60